createdAt,value
2023-04-09T00:01:15.625Z,11.55
2023-04-09T00:03:45.145Z,11.51
2023-04-09T00:06:13.882Z,11.47
2023-04-09T00:08:41.980Z,11.41
2023-04-09T00:11:12.194Z,11.35
2023-04-09T00:13:41.109Z,11.29
2023-04-09T00:16:10.220Z,11.26
2023-04-09T00:18:38.837Z,11.23
2023-04-09T00:21:08.940Z,11.18
2023-04-09T00:23:38.558Z,11.15
2023-04-09T00:26:07.042Z,11.09
2023-04-09T00:28:36.311Z,11.02
2023-04-09T00:31:04.562Z,10.95
2023-04-09T00:33:33.404Z,10.88
2023-04-09T00:36:02.328Z,10.82
2023-04-09T00:38:30.928Z,10.78
2023-04-09T00:40:59.874Z,10.73
2023-04-09T00:43:28.121Z,10.68
2023-04-09T00:45:56.296Z,10.64
2023-04-09T00:48:27.792Z,10.61
2023-04-09T00:50:56.248Z,10.57
2023-04-09T00:53:25.091Z,10.51
2023-04-09T00:55:54.299Z,10.42
2023-04-09T00:58:32.889Z,10.29
2023-04-09T01:01:01.427Z,10.20
2023-04-09T01:03:32.385Z,10.12
2023-04-09T01:06:16.376Z,10.07
2023-04-09T01:09:12.784Z,10.03
2023-04-09T01:11:56.945Z,10.01
2023-04-09T01:14:33.042Z,9.99
2023-04-09T01:17:20.041Z,10.00
2023-04-09T01:20:17.451Z,9.99
2023-04-09T01:22:48.723Z,9.98
2023-04-09T01:25:55.980Z,9.98
2023-04-09T01:28:34.302Z,9.96
2023-04-09T01:31:14.150Z,9.94
2023-04-09T01:33:42.324Z,9.95
2023-04-09T01:36:11.067Z,9.93
2023-04-09T01:38:41.542Z,9.91
2023-04-09T01:41:12.799Z,9.89
2023-04-09T01:43:40.945Z,9.90
2023-04-09T01:46:09.208Z,9.92
2023-04-09T01:48:37.857Z,9.95
2023-04-09T01:51:06.505Z,9.97
2023-04-09T01:53:34.645Z,10.00
2023-04-09T01:56:04.589Z,10.03
2023-04-09T01:58:35.239Z,10.06
2023-04-09T02:01:13.127Z,10.08
2023-04-09T02:03:55.043Z,10.08
2023-04-09T02:06:47.566Z,10.08
2023-04-09T02:09:15.941Z,10.08
2023-04-09T02:11:44.016Z,10.10
2023-04-09T02:14:15.995Z,10.13
2023-04-09T02:16:46.638Z,10.15
2023-04-09T02:19:14.638Z,10.17
2023-04-09T02:21:48.444Z,10.18
2023-04-09T02:24:16.714Z,10.19
2023-04-09T02:26:44.948Z,10.22
2023-04-09T02:29:14.144Z,10.24
2023-04-09T02:31:42.539Z,10.25
2023-04-09T02:34:10.976Z,10.26
2023-04-09T02:36:39.130Z,10.26
2023-04-09T02:39:07.286Z,10.26
2023-04-09T02:41:37.154Z,10.26
2023-04-09T02:44:06.146Z,10.28
2023-04-09T02:46:34.552Z,10.30
2023-04-09T02:49:02.842Z,10.32
2023-04-09T02:51:31.606Z,10.35
2023-04-09T02:54:03.554Z,10.39
2023-04-09T02:56:32.549Z,10.40
2023-04-09T02:59:00.970Z,10.41
2023-04-09T03:01:30.946Z,10.42
2023-04-09T03:04:00.929Z,10.42
2023-04-09T03:06:29.653Z,10.43
2023-04-09T03:08:57.932Z,10.43
2023-04-09T03:11:26.543Z,10.45
2023-04-09T03:13:54.794Z,10.47
2023-04-09T03:16:25.281Z,10.47
2023-04-09T03:18:53.785Z,10.47
2023-04-09T03:21:22.807Z,10.48
2023-04-09T03:23:51.708Z,10.49
2023-04-09T03:26:20.766Z,10.50
2023-04-09T03:28:50.526Z,10.51
2023-04-09T03:31:19.227Z,10.50
2023-04-09T03:33:47.663Z,10.49
2023-04-09T03:36:18.498Z,10.51
2023-04-09T03:38:55.201Z,10.52
2023-04-09T03:41:35.630Z,10.53
2023-04-09T03:44:10.457Z,10.54
2023-04-09T03:47:01.165Z,10.57
2023-04-09T03:49:29.649Z,10.58
2023-04-09T03:52:02.474Z,10.58
2023-04-09T03:54:39.154Z,10.60
2023-04-09T03:57:12.494Z,10.61
2023-04-09T03:59:46.401Z,10.61
2023-04-09T04:02:16.592Z,10.63
2023-04-09T04:04:47.623Z,10.64
2023-04-09T04:07:17.169Z,10.64
2023-04-09T04:09:50.463Z,10.65
2023-04-09T04:12:25.997Z,10.64
2023-04-09T04:15:08.635Z,10.64
2023-04-09T04:17:41.245Z,10.64
2023-04-09T04:20:17.701Z,10.65
2023-04-09T04:23:20.098Z,10.66
2023-04-09T04:26:03.593Z,10.67
2023-04-09T04:28:40.150Z,10.70
2023-04-09T04:31:10.818Z,10.73
2023-04-09T04:33:41.514Z,10.76
2023-04-09T04:36:14.259Z,10.83
2023-04-09T04:38:54.262Z,10.92
2023-04-09T04:41:31.723Z,10.99
2023-04-09T04:44:16.504Z,11.06
2023-04-09T04:46:47.048Z,11.12
2023-04-09T04:49:15.543Z,11.19
2023-04-09T04:51:49.420Z,11.27
2023-04-09T04:54:18.004Z,11.31
2023-04-09T04:56:53.041Z,11.36
2023-04-09T04:59:38.854Z,11.41
2023-04-09T05:02:08.398Z,11.46
2023-04-09T05:04:44.287Z,11.51
2023-04-09T05:07:17.256Z,11.54
2023-04-09T05:09:54.255Z,11.55
2023-04-09T05:12:23.764Z,11.55
2023-04-09T05:14:58.552Z,11.60
2023-04-09T05:17:26.838Z,11.66
2023-04-09T05:19:55.159Z,11.72
2023-04-09T05:22:28.145Z,11.80
2023-04-09T05:24:56.227Z,11.87
2023-04-09T05:27:26.166Z,11.96
2023-04-09T05:30:00.368Z,12.06
2023-04-09T05:32:29.946Z,12.14
2023-04-09T05:34:58.793Z,12.22
2023-04-09T05:37:27.729Z,12.30
2023-04-09T05:39:58.948Z,12.35
2023-04-09T05:42:27.233Z,12.42
2023-04-09T05:45:07.329Z,12.47
2023-04-09T05:47:35.468Z,12.52
2023-04-09T05:50:12.254Z,12.58
2023-04-09T05:52:43.503Z,12.63
2023-04-09T05:55:13.475Z,12.66
2023-04-09T05:57:58.277Z,12.69
2023-04-09T06:00:34.028Z,12.75
2023-04-09T06:03:03.729Z,12.81
2023-04-09T06:05:32.330Z,12.86
2023-04-09T06:08:02.334Z,12.90
2023-04-09T06:10:32.951Z,12.98
2023-04-09T06:13:01.368Z,13.04
2023-04-09T06:15:35.078Z,13.10
2023-04-09T06:18:03.246Z,13.17
2023-04-09T06:20:31.794Z,13.24
2023-04-09T06:23:09.345Z,13.28
2023-04-09T06:25:39.148Z,13.35
2023-04-09T06:28:07.704Z,13.43
2023-04-09T06:30:37.202Z,13.51
2023-04-09T06:33:06.336Z,13.62
2023-04-09T06:35:34.714Z,13.72
2023-04-09T06:38:07.009Z,13.77
2023-04-09T06:40:38.157Z,13.78
2023-04-09T06:43:09.750Z,13.74
2023-04-09T06:45:47.655Z,13.71
2023-04-09T06:48:16.723Z,13.71
2023-04-09T06:50:46.052Z,13.71
2023-04-09T06:53:16.202Z,13.74
2023-04-09T06:55:44.382Z,13.78
2023-04-09T06:58:13.303Z,13.78
2023-04-09T07:00:42.050Z,13.80
2023-04-09T07:03:15.038Z,13.86
2023-04-09T07:05:43.437Z,13.98
2023-04-09T07:08:12.073Z,14.12
2023-04-09T07:10:42.401Z,14.25
2023-04-09T07:13:12.928Z,14.37
2023-04-09T07:15:42.583Z,14.48
2023-04-09T07:18:11.836Z,14.60
2023-04-09T07:20:43.288Z,14.75
2023-04-09T07:23:12.308Z,14.92
2023-04-09T07:25:42.441Z,15.10
2023-04-09T07:28:11.783Z,15.29
2023-04-09T07:30:40.078Z,15.48
2023-04-09T07:33:08.259Z,15.68
2023-04-09T07:35:38.685Z,15.78
2023-04-09T07:38:07.317Z,15.84
2023-04-09T07:40:36.978Z,15.94
2023-04-09T07:43:06.016Z,16.04
2023-04-09T07:45:34.358Z,16.07
2023-04-09T07:48:03.494Z,16.07
2023-04-09T07:50:32.963Z,16.09
2023-04-09T07:53:01.432Z,16.14
2023-04-09T07:55:29.806Z,16.21
2023-04-09T07:57:58.309Z,16.25
2023-04-09T08:00:33.042Z,16.30
2023-04-09T08:03:04.310Z,16.37
2023-04-09T08:05:32.785Z,16.40
2023-04-09T08:08:06.446Z,16.40
2023-04-09T08:10:34.622Z,16.39
2023-04-09T08:13:03.002Z,16.39
2023-04-09T08:15:38.204Z,16.34
2023-04-09T08:18:07.563Z,16.29
2023-04-09T08:20:36.299Z,16.33
2023-04-09T08:23:13.599Z,16.33
2023-04-09T08:25:42.932Z,16.27
2023-04-09T08:28:11.060Z,16.25
2023-04-09T08:30:41.002Z,16.28
2023-04-09T08:33:09.779Z,16.34
2023-04-09T08:35:40.519Z,16.35
2023-04-09T08:38:09.054Z,16.30
2023-04-09T08:40:37.566Z,16.25
2023-04-09T08:43:09.385Z,16.21
2023-04-09T08:45:41.675Z,16.15
2023-04-09T08:48:10.386Z,16.13
2023-04-09T08:50:39.873Z,16.16
2023-04-09T08:53:08.458Z,16.18
2023-04-09T08:55:37.906Z,16.19
2023-04-09T08:58:10.814Z,16.22
2023-04-09T09:00:43.176Z,16.22
2023-04-09T09:03:16.009Z,16.21
2023-04-09T09:05:45.696Z,16.20
2023-04-09T09:08:23.184Z,16.19
2023-04-09T09:10:51.664Z,16.17
2023-04-09T09:13:19.744Z,16.10
2023-04-09T09:15:50.562Z,16.00
2023-04-09T09:18:37.570Z,15.88
2023-04-09T09:21:12.061Z,15.74
2023-04-09T09:23:42.777Z,15.64
2023-04-09T09:26:21.772Z,15.55
2023-04-09T09:28:50.730Z,15.46
2023-04-09T09:31:21.222Z,15.36
2023-04-09T09:33:50.563Z,15.28
2023-04-09T09:36:34.726Z,15.25
2023-04-09T09:39:05.394Z,15.24
2023-04-09T09:41:36.815Z,15.21
2023-04-09T09:44:07.218Z,15.20
2023-04-09T09:46:38.464Z,15.23
2023-04-09T09:49:07.424Z,15.27
2023-04-09T09:51:40.129Z,15.31
2023-04-09T09:54:10.231Z,15.30
2023-04-09T09:56:39.544Z,15.31
2023-04-09T09:59:17.590Z,15.32
2023-04-09T10:01:46.334Z,15.29
2023-04-09T10:04:15.903Z,15.25
2023-04-09T10:06:45.031Z,15.23
2023-04-09T10:09:13.335Z,15.24
2023-04-09T10:11:45.729Z,15.25
2023-04-09T10:14:18.242Z,15.28
2023-04-09T10:16:46.651Z,15.32
2023-04-09T10:19:15.325Z,15.28
2023-04-09T10:21:48.758Z,15.27
2023-04-09T10:24:20.156Z,15.30
2023-04-09T10:26:48.983Z,15.35
2023-04-09T10:29:17.145Z,15.38
2023-04-09T10:31:53.136Z,15.36
2023-04-09T10:34:24.760Z,15.44
2023-04-09T10:36:55.825Z,15.38
2023-04-09T10:39:29.890Z,15.48
2023-04-09T10:41:58.764Z,15.50
2023-04-09T10:44:38.163Z,15.44
2023-04-09T10:47:32.489Z,15.38
2023-04-09T10:50:20.179Z,15.33
2023-04-09T10:52:52.987Z,15.25
2023-04-09T10:55:36.295Z,15.13
2023-04-09T10:58:13.270Z,15.01
2023-04-09T11:00:46.503Z,14.90
2023-04-09T11:03:22.378Z,14.78
2023-04-09T11:06:06.172Z,14.63
2023-04-09T11:08:39.279Z,14.55
2023-04-09T11:11:07.698Z,14.48
2023-04-09T11:13:41.776Z,14.41
2023-04-09T11:16:12.990Z,14.37
2023-04-09T11:19:02.969Z,14.41
2023-04-09T11:21:48.438Z,14.45
2023-04-09T11:24:18.916Z,14.51
2023-04-09T11:26:52.008Z,14.54
2023-04-09T11:29:37.062Z,14.58
2023-04-09T11:32:05.626Z,14.67
2023-04-09T11:34:53.459Z,14.79
2023-04-09T11:37:28.863Z,14.98
2023-04-09T11:39:58.430Z,15.23
2023-04-09T11:42:31.686Z,15.49
2023-04-09T11:45:07.247Z,15.70
2023-04-09T11:47:51.293Z,15.83
2023-04-09T11:50:23.273Z,15.87
2023-04-09T11:52:52.502Z,16.02
2023-04-09T11:55:31.092Z,16.24
2023-04-09T11:58:11.779Z,16.45
2023-04-09T12:00:45.438Z,16.59
2023-04-09T12:03:31.029Z,16.59
2023-04-09T12:06:02.978Z,16.51
2023-04-09T12:08:35.981Z,16.45
2023-04-09T12:11:12.841Z,16.45
2023-04-09T12:13:44.714Z,16.49
2023-04-09T12:16:14.435Z,16.54
2023-04-09T12:19:09.222Z,16.62
2023-04-09T12:21:58.529Z,16.69
2023-04-09T12:24:28.243Z,16.71
2023-04-09T12:27:07.663Z,16.78
2023-04-09T12:29:36.229Z,16.83
2023-04-09T12:32:05.056Z,16.89
2023-04-09T12:34:36.182Z,17.06
2023-04-09T12:37:04.972Z,17.26
2023-04-09T12:39:34.453Z,17.32
2023-04-09T12:42:04.492Z,17.22
2023-04-09T12:44:37.357Z,17.12
2023-04-09T12:47:05.380Z,17.07
2023-04-09T12:49:33.421Z,17.07
2023-04-09T12:52:01.664Z,17.23
2023-04-09T12:54:31.619Z,17.44
2023-04-09T12:57:01.548Z,17.58
2023-04-09T12:59:32.007Z,17.66
2023-04-09T13:02:02.330Z,17.64
2023-04-09T13:04:31.523Z,17.53
2023-04-09T13:07:03.064Z,17.37
2023-04-09T13:09:31.678Z,17.20
2023-04-09T13:12:13.114Z,17.08
2023-04-09T13:14:44.613Z,17.00
2023-04-09T13:17:15.597Z,16.91
2023-04-09T13:19:44.287Z,16.87
2023-04-09T13:22:12.652Z,16.98
2023-04-09T13:24:43.376Z,17.13
2023-04-09T13:27:14.455Z,17.24
2023-04-09T13:29:45.732Z,17.30
2023-04-09T13:32:14.507Z,17.36
2023-04-09T13:34:55.898Z,17.48
2023-04-09T13:37:26.222Z,17.60
2023-04-09T13:39:54.287Z,17.73
2023-04-09T13:42:22.800Z,17.90
2023-04-09T13:44:51.399Z,18.09
2023-04-09T13:47:24.171Z,18.26
2023-04-09T13:49:53.383Z,18.37
2023-04-09T13:52:21.471Z,18.41
2023-04-09T13:54:50.658Z,18.38
2023-04-09T13:57:18.650Z,18.40
2023-04-09T13:59:47.517Z,18.48
2023-04-09T14:02:18.227Z,18.48
2023-04-09T14:04:46.529Z,18.41
2023-04-09T14:07:14.910Z,18.42
2023-04-09T14:09:45.943Z,18.32
2023-04-09T14:12:14.673Z,18.10
2023-04-09T14:14:43.859Z,17.85
2023-04-09T14:17:11.815Z,17.57
2023-04-09T14:19:40.507Z,17.37
2023-04-09T14:22:18.515Z,17.23
2023-04-09T14:24:46.509Z,17.09
2023-04-09T14:27:14.942Z,16.96
2023-04-09T14:29:46.479Z,16.83
2023-04-09T14:32:23.695Z,16.71
2023-04-09T14:35:07.952Z,16.62
2023-04-09T14:37:42.211Z,16.54
2023-04-09T14:40:13.149Z,16.46
2023-04-09T14:42:45.654Z,16.33
2023-04-09T14:45:24.414Z,16.18
2023-04-09T14:47:52.501Z,16.05
2023-04-09T14:50:25.831Z,15.93
2023-04-09T14:52:56.907Z,15.76
2023-04-09T14:55:44.825Z,15.61
2023-04-09T14:58:19.888Z,15.50
2023-04-09T15:00:59.389Z,15.38
2023-04-09T15:03:31.804Z,15.28
2023-04-09T15:06:12.644Z,15.16
2023-04-09T15:08:40.722Z,15.08
2023-04-09T15:11:23.119Z,15.00
2023-04-09T15:13:57.930Z,14.98
2023-04-09T15:16:28.104Z,14.91
2023-04-09T15:19:05.407Z,14.86
2023-04-09T15:21:38.156Z,14.81
2023-04-09T15:24:08.182Z,14.77
2023-04-09T15:26:39.155Z,14.73
2023-04-09T15:29:15.537Z,14.68
2023-04-09T15:31:56.433Z,14.60
2023-04-09T15:34:32.738Z,14.54
2023-04-09T15:37:03.512Z,14.52
2023-04-09T15:39:32.660Z,14.51
2023-04-09T15:42:02.244Z,14.50
2023-04-09T15:44:31.606Z,14.46
2023-04-09T15:47:10.886Z,14.44
2023-04-09T15:49:43.008Z,14.44
2023-04-09T15:52:13.685Z,14.43
2023-04-09T15:54:41.668Z,14.41
2023-04-09T15:57:12.436Z,14.37
2023-04-09T15:59:44.118Z,14.33
2023-04-09T16:02:15.764Z,14.28
2023-04-09T16:04:47.359Z,14.27
2023-04-09T16:07:18.676Z,14.26
2023-04-09T16:09:54.564Z,14.26
2023-04-09T16:12:26.097Z,14.28
2023-04-09T16:15:08.004Z,14.26
2023-04-09T16:17:40.938Z,14.29
2023-04-09T16:20:11.598Z,14.25
2023-04-09T16:22:45.386Z,14.25
2023-04-09T16:25:14.415Z,14.21
2023-04-09T16:27:43.572Z,14.19
2023-04-09T16:30:12.567Z,14.15
2023-04-09T16:32:46.992Z,14.10
2023-04-09T16:35:15.504Z,14.01
2023-04-09T16:37:51.857Z,13.94
2023-04-09T16:40:24.414Z,13.91
2023-04-09T16:42:56.873Z,13.88
2023-04-09T16:45:24.896Z,13.81
2023-04-09T16:48:13.479Z,13.77
2023-04-09T16:50:42.953Z,13.78
2023-04-09T16:53:14.569Z,13.76
2023-04-09T16:55:45.033Z,13.72
2023-04-09T16:58:12.998Z,13.72
2023-04-09T17:00:44.146Z,13.72
2023-04-09T17:03:14.312Z,13.71
2023-04-09T17:05:42.377Z,13.72
2023-04-09T17:08:11.088Z,13.71
2023-04-09T17:10:44.254Z,13.67
2023-04-09T17:13:16.406Z,13.69
2023-04-09T17:15:44.709Z,13.71
2023-04-09T17:18:32.690Z,13.74
2023-04-09T17:21:01.519Z,13.74
2023-04-09T17:23:34.217Z,13.75
2023-04-09T17:26:02.555Z,13.76
2023-04-09T17:28:34.027Z,13.78
2023-04-09T17:31:02.462Z,13.77
2023-04-09T17:33:50.455Z,13.76
2023-04-09T17:36:19.905Z,13.72
2023-04-09T17:38:53.148Z,13.68
2023-04-09T17:41:21.300Z,13.64
2023-04-09T17:43:53.715Z,13.61
2023-04-09T17:46:23.888Z,13.56
2023-04-09T17:48:55.331Z,13.49
2023-04-09T17:51:30.291Z,13.43
2023-04-09T17:54:04.800Z,13.36
2023-04-09T17:56:39.001Z,13.32
2023-04-09T17:59:12.142Z,13.30
2023-04-09T18:02:00.978Z,13.29
2023-04-09T18:04:29.592Z,13.27
2023-04-09T18:06:57.969Z,13.24
2023-04-09T18:09:26.238Z,13.22
2023-04-09T18:11:56.549Z,13.16
2023-04-09T18:14:32.652Z,13.13
2023-04-09T18:17:04.841Z,13.13
2023-04-09T18:19:32.932Z,13.12
2023-04-09T18:22:01.342Z,13.10
2023-04-09T18:24:35.247Z,13.05
2023-04-09T18:27:03.874Z,12.99
2023-04-09T18:29:36.723Z,12.92
2023-04-09T18:32:05.012Z,12.86
2023-04-09T18:34:36.567Z,12.82
2023-04-09T18:37:04.981Z,12.81
2023-04-09T18:39:40.326Z,12.77
2023-04-09T18:42:10.162Z,12.75
2023-04-09T18:44:40.751Z,12.71
2023-04-09T18:47:12.753Z,12.68
2023-04-09T18:49:41.527Z,12.66
2023-04-09T18:52:13.297Z,12.67
2023-04-09T18:54:49.349Z,12.65
2023-04-09T18:57:17.774Z,12.64
2023-04-09T18:59:46.827Z,12.61
2023-04-09T19:02:15.502Z,12.57
2023-04-09T19:04:45.103Z,12.52
2023-04-09T19:07:13.624Z,12.49
2023-04-09T19:09:42.161Z,12.47
2023-04-09T19:12:10.999Z,12.43
2023-04-09T19:14:40.684Z,12.41
2023-04-09T19:17:10.541Z,12.38
2023-04-09T19:19:38.869Z,12.36
2023-04-09T19:22:08.276Z,12.34
2023-04-09T19:24:41.362Z,12.34
2023-04-09T19:27:11.875Z,12.34
2023-04-09T19:29:40.462Z,12.37
2023-04-09T19:32:13.531Z,12.38
2023-04-09T19:34:45.003Z,12.35
2023-04-09T19:37:15.218Z,12.35
2023-04-09T19:39:43.723Z,12.35
2023-04-09T19:42:12.190Z,12.35
2023-04-09T19:44:41.802Z,12.35
2023-04-09T19:47:10.516Z,12.36
2023-04-09T19:49:39.491Z,12.29
2023-04-09T19:52:08.762Z,12.30
2023-04-09T19:54:37.660Z,12.29
2023-04-09T19:57:12.809Z,12.26
2023-04-09T19:59:43.244Z,12.26
2023-04-09T20:02:15.616Z,12.25
2023-04-09T20:04:43.967Z,12.23
2023-04-09T20:07:12.343Z,12.22
2023-04-09T20:09:43.679Z,12.23
2023-04-09T20:12:14.122Z,12.24
2023-04-09T20:14:43.391Z,12.25
2023-04-09T20:17:20.387Z,12.25
2023-04-09T20:19:58.464Z,12.21
2023-04-09T20:22:33.650Z,12.21
2023-04-09T20:25:04.914Z,12.24
2023-04-09T20:27:33.662Z,12.23
2023-04-09T20:30:03.308Z,12.23
2023-04-09T20:32:37.950Z,12.20
2023-04-09T20:35:08.242Z,12.20
2023-04-09T20:37:36.879Z,12.23
2023-04-09T20:40:06.822Z,12.22
2023-04-09T20:47:09.824Z,12.27
2023-04-09T20:49:37.958Z,12.27
2023-04-09T20:52:09.235Z,12.28
2023-04-09T20:54:39.247Z,12.28
2023-04-09T20:57:07.248Z,12.27
2023-04-09T20:59:36.317Z,12.27
2023-04-09T21:02:04.778Z,12.27
2023-04-09T21:04:32.996Z,12.26
2023-04-09T21:07:01.256Z,12.25
2023-04-09T21:09:29.724Z,12.24
2023-04-09T21:12:04.902Z,12.25
2023-04-09T21:14:34.471Z,12.26
2023-04-09T21:17:02.548Z,12.28
2023-04-09T21:19:30.799Z,12.30
2023-04-09T21:21:58.854Z,12.31
2023-04-09T21:24:27.884Z,12.32
2023-04-09T21:26:55.933Z,12.30
2023-04-09T21:29:25.428Z,12.31
2023-04-09T21:31:54.047Z,12.30
2023-04-09T21:34:22.159Z,12.34
2023-04-09T21:36:51.320Z,12.35
2023-04-09T21:39:19.789Z,12.38
2023-04-09T21:41:47.891Z,12.41
2023-04-09T21:44:16.818Z,12.43
2023-04-09T21:51:18.544Z,12.43
2023-04-09T21:53:47.597Z,12.42
2023-04-09T21:56:16.022Z,12.38
2023-04-09T21:58:43.998Z,12.39
2023-04-09T22:01:22.618Z,12.35
2023-04-09T22:08:34.054Z,12.39
2023-04-09T22:11:03.313Z,12.41
2023-04-09T22:13:31.838Z,12.40
2023-04-09T22:16:01.103Z,12.33
2023-04-09T22:18:29.920Z,12.35
2023-04-09T22:21:17.040Z,12.35
2023-04-09T22:23:45.417Z,12.31
2023-04-09T22:26:13.760Z,12.26
2023-04-09T22:28:42.997Z,12.29
2023-04-09T22:31:11.079Z,12.30
2023-04-09T22:33:39.612Z,12.23
2023-04-09T22:36:08.270Z,12.23
2023-04-09T22:38:36.385Z,12.23
2023-04-09T22:45:54.533Z,12.20
2023-04-09T22:48:23.283Z,12.21
2023-04-09T22:50:51.343Z,12.21
2023-04-09T22:53:20.809Z,12.22
2023-04-09T22:55:54.601Z,12.25
2023-04-09T22:58:22.572Z,12.28
2023-04-09T23:00:50.990Z,12.28
2023-04-09T23:03:19.031Z,12.26
2023-04-09T23:05:47.185Z,12.23
2023-04-09T23:08:15.332Z,12.21
2023-04-09T23:10:51.576Z,12.26
2023-04-09T23:13:19.740Z,12.25
2023-04-09T23:15:48.451Z,12.25
2023-04-09T23:18:16.695Z,12.24
2023-04-09T23:20:44.618Z,12.25
2023-04-09T23:23:13.676Z,12.25
2023-04-09T23:25:45.297Z,12.25
2023-04-09T23:28:13.228Z,12.23
2023-04-09T23:30:41.510Z,12.24
2023-04-09T23:33:09.839Z,12.21
2023-04-09T23:35:38.179Z,12.19
2023-04-09T23:38:11.077Z,12.18
2023-04-09T23:40:40.581Z,12.17
2023-04-09T23:43:08.956Z,12.19
2023-04-09T23:50:28.743Z,12.23
2023-04-09T23:53:03.402Z,12.19
2023-04-09T23:55:33.358Z,12.14
2023-04-09T23:58:02.093Z,12.15
